Time;durP1;ratioP1;P1;durP2;ratioP2;P2;SDS_P1;SDS_P2;PMS_P1;PMS_P2;Temp;Humidity;BMP_temperature;BMP_pressure;BME280_temperature;BME280_humidity;BME280_pressure;Samples;Min_cycle;Max_cycle;Signal;HPM_P1;HPM_P2
2023/10/16 00:01:09;;;;;;;2.00;0.50;;;;;;;7.32;96.76;101358.47;5074759;28;20430;-67
2023/10/16 00:03:38;;;;;;;1.80;0.33;;;;;;;7.28;96.84;101361.94;5074684;28;20445;-71
2023/10/16 00:06:06;;;;;;;1.80;0.30;;;;;;;7.24;97.05;101358.97;5074706;28;20473;-70
2023/10/16 00:08:35;;;;;;;1.80;0.40;;;;;;;7.19;97.44;101352.72;5074208;28;20453;-70
2023/10/16 00:11:04;;;;;;;1.80;0.40;;;;;;;7.15;97.82;101368.59;5074543;28;20491;-71
2023/10/16 00:13:35;;;;;;;2.27;0.53;;;;;;;7.19;96.94;101374.28;5074165;28;20436;-71
2023/10/16 00:16:03;;;;;;;2.40;0.60;;;;;;;7.18;96.44;101369.97;5074661;28;20446;-71
2023/10/16 00:18:34;;;;;;;2.07;0.50;;;;;;;7.19;95.92;101379.66;5074699;28;20572;-71
2023/10/16 00:21:04;;;;;;;1.80;0.37;;;;;;;7.21;96.53;101375.63;5074402;28;20820;-71
2023/10/16 00:23:37;;;;;;;1.90;0.40;;;;;;;7.17;96.92;101382.63;5074813;28;20426;-71
2023/10/16 00:26:06;;;;;;;2.47;0.50;;;;;;;7.16;97.75;101378.28;5074894;28;20422;-71
2023/10/16 00:28:33;;;;;;;2.00;0.40;;;;;;;7.14;97.92;101374.25;5074310;28;20781;-71
2023/10/16 00:31:00;;;;;;;1.80;0.30;;;;;;;7.12;97.16;101379.06;5074206;28;20436;-71
2023/10/16 00:33:27;;;;;;;2.53;0.70;;;;;;;7.10;97.42;101382.03;5074099;28;20442;-71
2023/10/16 00:35:54;;;;;;;1.80;0.40;;;;;;;7.09;97.80;101377.72;5074036;28;20444;-70
2023/10/16 00:38:22;;;;;;;2.13;0.57;;;;;;;7.03;98.22;101386.81;5074163;28;20485;-71
2023/10/16 00:41:05;;;;;;;2.47;0.67;;;;;;;7.03;98.20;101387.63;5074013;28;20488;-71
2023/10/16 00:43:33;;;;;;;1.90;0.40;;;;;;;7.03;97.90;101376.84;5073810;28;20430;-71
2023/10/16 00:46:05;;;;;;;2.13;0.50;;;;;;;7.02;98.43;101380.63;5074001;28;20574;-71
2023/10/16 00:48:33;;;;;;;1.90;0.40;;;;;;;7.01;98.77;101383.56;5073928;28;20425;-71
2023/10/16 00:51:06;;;;;;;2.00;0.50;;;;;;;7.02;98.58;101379.81;5073867;28;20524;-71
2023/10/16 00:53:33;;;;;;;1.80;0.30;;;;;;;6.98;98.48;101373.31;5073847;28;20446;-71
2023/10/16 00:56:02;;;;;;;1.90;0.40;;;;;;;6.98;98.89;101373.31;5073436;28;20803;-71
2023/10/16 00:58:29;;;;;;;2.17;0.50;;;;;;;7.02;98.53;101367.16;5073303;28;20485;-71
2023/10/16 01:00:57;;;;;;;1.90;0.40;;;;;;;6.99;98.18;101369.53;5073736;28;20445;-70
2023/10/16 01:03:26;;;;;;;1.90;0.47;;;;;;;6.98;98.52;101368.72;5074107;28;20440;-71
2023/10/16 01:05:53;;;;;;;2.00;0.40;;;;;;;6.95;98.15;101371.97;5073564;28;20448;-71
2023/10/16 01:08:20;;;;;;;1.80;0.30;;;;;;;6.99;98.42;101366.84;5073195;28;20457;-70
2023/10/16 01:10:48;;;;;;;1.80;0.40;;;;;;;6.96;98.65;101357.41;5073027;28;20521;-71
2023/10/16 01:13:16;;;;;;;1.90;0.40;;;;;;;6.94;98.97;101362.22;5073946;28;20524;-71
2023/10/16 01:15:46;;;;;;;1.80;0.30;;;;;;;6.98;99.40;101357.16;5074077;28;20468;-71
2023/10/16 01:18:15;;;;;;;1.80;0.40;;;;;;;6.94;99.25;101361.44;5073479;28;20875;-70
2023/10/16 01:20:46;;;;;;;2.53;0.60;;;;;;;6.95;98.54;101357.66;5073457;28;20452;-73
2023/10/16 01:23:17;;;;;;;2.57;0.60;;;;;;;6.94;98.91;101367.63;5073295;28;20429;-69
2023/10/16 01:25:46;;;;;;;3.47;0.50;;;;;;;6.93;98.80;101362.50;5073458;28;20418;-69
2023/10/16 01:28:15;;;;;;;1.80;0.40;;;;;;;6.93;98.97;101367.88;5073413;28;20441;-69
2023/10/16 01:30:42;;;;;;;1.90;0.40;;;;;;;6.91;99.06;101368.16;5073333;28;20444;-71
2023/10/16 01:33:09;;;;;;;3.93;0.67;;;;;;;6.91;98.77;101368.16;5073130;28;20476;-71
2023/10/16 01:35:36;;;;;;;1.90;0.40;;;;;;;6.88;99.11;101359.78;5073353;28;20524;-70
2023/10/16 01:38:08;;;;;;;2.93;0.83;;;;;;;6.90;99.29;101361.13;5073135;28;20487;-71
2023/10/16 01:40:37;;;;;;;1.80;0.50;;;;;;;6.90;99.00;101366.50;5073342;28;20455;-71
2023/10/16 01:43:05;;;;;;;1.90;0.40;;;;;;;6.95;99.39;101357.66;5073668;28;20465;-71
2023/10/16 01:45:32;;;;;;;1.80;0.30;;;;;;;6.92;99.52;101366.28;5073359;28;20441;-71
2023/10/16 01:48:04;;;;;;;2.73;0.50;;;;;;;6.94;98.68;101375.69;5073129;28;20468;-71
2023/10/16 01:50:32;;;;;;;2.20;0.63;;;;;;;6.90;98.59;101371.91;5073279;28;20425;-71
2023/10/16 01:52:59;;;;;;;2.00;0.37;;;;;;;6.83;98.86;101366.75;5072912;28;20449;-71
2023/10/16 01:55:27;;;;;;;2.17;0.50;;;;;;;6.86;99.73;101369.97;5073391;28;20469;-71
2023/10/16 01:57:59;;;;;;;1.80;0.30;;;;;;;6.84;99.65;101364.84;5072695;28;20475;-71
2023/10/16 02:00:34;;;;;;;1.93;0.50;;;;;;;6.91;99.14;101370.03;5073051;28;20963;-71
2023/10/16 02:03:01;;;;;;;1.80;0.30;;;;;;;6.83;99.76;101368.63;5072867;28;20512;-71
2023/10/16 02:05:28;;;;;;;2.30;0.50;;;;;;;6.82;99.12;101362.44;5072740;28;20948;-71
2023/10/16 02:07:56;;;;;;;2.33;0.67;;;;;;;6.83;99.00;101365.94;5073106;28;20473;-71
2023/10/16 02:10:23;;;;;;;1.80;0.40;;;;;;;6.77;99.32;101361.53;5073425;28;20464;-71
2023/10/16 02:12:50;;;;;;;1.80;0.30;;;;;;;6.77;99.63;101378.53;5072999;28;20441;-71
2023/10/16 02:15:21;;;;;;;1.77;0.30;;;;;;;6.70;100.00;101383.31;5073101;28;20460;-71
2023/10/16 02:17:49;;;;;;;1.97;0.40;;;;;;;6.66;100.00;101370.63;5073071;28;20522;-71
2023/10/16 02:20:18;;;;;;;1.80;0.40;;;;;;;6.61;100.00;101374.06;5073519;28;20481;-71
2023/10/16 02:22:45;;;;;;;2.00;0.50;;;;;;;6.67;100.00;101385.69;5076882;28;20429;-71
2023/10/16 02:25:12;;;;;;;1.90;0.50;;;;;;;6.61;100.00;101375.97;5076629;28;20539;-71
2023/10/16 02:27:41;;;;;;;1.90;0.50;;;;;;;6.60;100.00;101380.53;5076650;28;20456;-71
2023/10/16 02:30:20;;;;;;;1.90;0.40;;;;;;;6.62;100.00;101372.19;5077241;28;20471;-71
2023/10/16 02:32:49;;;;;;;2.20;0.40;;;;;;;6.63;100.00;101369.25;5076799;28;20425;-71
2023/10/16 02:35:16;;;;;;;2.70;0.87;;;;;;;6.67;100.00;101378.44;5076205;28;20921;-71
2023/10/16 02:37:43;;;;;;;2.00;0.50;;;;;;;6.69;100.00;101364.72;5076398;28;20544;-71
2023/10/16 02:40:12;;;;;;;1.80;0.30;;;;;;;6.70;100.00;101367.16;5076296;28;20843;-71
2023/10/16 02:42:40;;;;;;;1.77;0.30;;;;;;;6.71;100.00;101376.84;5076033;28;20929;-71
2023/10/16 02:45:18;;;;;;;1.70;0.30;;;;;;;6.69;100.00;101373.63;5075907;28;20449;-71
2023/10/16 02:47:46;;;;;;;1.80;0.40;;;;;;;6.68;100.00;101376.53;5076165;28;20479;-71
2023/10/16 02:50:14;;;;;;;2.90;0.73;;;;;;;6.61;99.09;101375.97;5075853;28;20495;-71
2023/10/16 02:52:41;;;;;;;1.77;0.30;;;;;;;6.57;99.59;101372.97;5076155;28;20968;-71
2023/10/16 02:55:11;;;;;;;2.37;0.40;;;;;;;6.54;99.77;101368.06;5076420;28;20465;-71
2023/10/16 02:57:40;;;;;;;2.00;0.50;;;;;;;6.49;100.00;101376.91;5075981;28;20453;-71
2023/10/16 03:00:15;;;;;;;1.90;0.50;;;;;;;6.48;100.00;101379.88;5075921;28;20962;-71
2023/10/16 03:02:41;;;;;;;1.77;0.30;;;;;;;6.50;100.00;101375.84;5075974;28;20901;-70
2023/10/16 03:05:11;;;;;;;2.00;0.50;;;;;;;6.45;100.00;101380.38;5075953;28;20433;-70
2023/10/16 03:07:44;;;;;;;1.80;0.40;;;;;;;6.47;100.00;101372.88;5075613;28;20483;-71
2023/10/16 03:10:11;;;;;;;1.80;0.30;;;;;;;6.48;100.00;101379.88;5075798;28;20428;-71
2023/10/16 03:12:37;;;;;;;2.27;0.50;;;;;;;6.49;100.00;101384.19;5075917;28;20477;-71
2023/10/16 03:15:15;;;;;;;1.80;0.30;;;;;;;6.45;100.00;101386.56;5076079;28;20441;-71
2023/10/16 03:17:42;;;;;;;1.80;0.40;;;;;;;6.38;100.00;101377.88;5075829;28;20914;-71
2023/10/16 03:20:19;;;;;;;3.23;0.50;;;;;;;6.39;100.00;101389.47;5075539;28;20905;-71
2023/10/16 03:22:47;;;;;;;1.87;0.43;;;;;;;6.40;100.00;101388.38;5075294;28;20440;-71
2023/10/16 03:25:28;;;;;;;2.30;0.50;;;;;;;6.41;100.00;101387.31;5075815;28;20448;-71
2023/10/16 03:27:55;;;;;;;2.00;0.40;;;;;;;6.42;100.00;101389.78;5075447;28;20497;-71
2023/10/16 03:30:22;;;;;;;2.10;0.40;;;;;;;6.39;100.00;101392.16;5075744;28;20441;-71
2023/10/16 03:32:48;;;;;;;1.90;0.60;;;;;;;6.41;100.00;101388.13;5074698;28;20441;-71
2023/10/16 03:35:21;;;;;;;1.73;0.40;;;;;;;6.44;100.00;101384.13;5075009;28;20939;-71
2023/10/16 03:37:51;;;;;;;2.47;0.67;;;;;;;6.48;100.00;101379.88;5075567;28;20534;-71
2023/10/16 03:40:19;;;;;;;1.80;0.40;;;;;;;6.51;100.00;101390.13;5075569;28;20473;-71
2023/10/16 03:42:46;;;;;;;1.80;0.30;;;;;;;6.48;100.00;101382.56;5075312;28;20472;-71
2023/10/16 03:45:14;;;;;;;1.80;0.40;;;;;;;6.53;100.00;101391.50;5075126;28;20943;-71
2023/10/16 03:47:42;;;;;;;2.53;0.77;;;;;;;6.50;100.00;101399.25;5075328;28;20458;-71
2023/10/16 03:50:09;;;;;;;1.80;0.30;;;;;;;6.43;100.00;101399.47;5075320;28;20448;-72
2023/10/16 03:52:36;;;;;;;1.83;0.43;;;;;;;6.45;100.00;101397.31;5074899;28;20442;-71
2023/10/16 03:55:22;;;;;;;1.70;0.30;;;;;;;6.49;100.00;101392.25;5074903;28;20437;-71
2023/10/16 03:57:50;;;;;;;1.80;0.40;;;;;;;6.55;100.00;101388.53;5075227;28;20453;-71
2023/10/16 04:00:18;;;;;;;1.80;0.40;;;;;;;6.60;100.00;101388.59;5074699;28;20592;-71
2023/10/16 04:02:46;;;;;;;1.80;0.40;;;;;;;6.59;100.00;101386.97;5075073;28;20441;-71
2023/10/16 04:05:29;;;;;;;1.80;0.40;;;;;;;6.50;100.00;101385.78;5074738;28;20536;-71
2023/10/16 04:07:56;;;;;;;1.80;0.30;;;;;;;6.46;100.00;101390.06;5074408;28;20469;-71
2023/10/16 04:10:29;;;;;;;3.17;1.10;;;;;;;6.38;100.00;101385.16;5074263;28;20951;-71
2023/10/16 04:12:56;;;;;;;2.10;0.50;;;;;;;6.36;100.00;101384.59;5074960;28;20462;-71
2023/10/16 04:15:48;;;;;;;2.10;0.40;;;;;;;6.40;100.00;101386.50;5074299;28;20446;-71
2023/10/16 04:18:27;;;;;;;2.00;0.53;;;;;;;6.39;100.00;101384.09;5074051;28;20445;-71
2023/10/16 04:20:57;;;;;;;2.10;0.50;;;;;;;6.43;100.00;101382.50;5074295;28;20468;-71
2023/10/16 04:23:29;;;;;;;2.43;0.67;;;;;;;6.45;100.00;101385.75;5074054;28;20885;-71
2023/10/16 04:29:22;;;;;;;2.00;0.63;;;;;;;6.37;100.00;101394.28;5072918;28;20438;-71
2023/10/16 04:31:44;;;;;;;1.80;0.40;;;;;;;6.40;100.00;101391.09;5073786;28;20799;-71
2023/10/16 04:34:24;;;;;;;2.70;0.63;;;;;;;6.40;100.00;101388.38;5074005;28;20462;-71
2023/10/16 04:36:52;;;;;;;1.80;0.40;;;;;;;6.35;100.00;101388.34;5074076;28;20457;-71
2023/10/16 04:41:37;;;;;;;1.83;0.37;;;;;;;6.30;100.00;101384.53;5073740;28;20884;-71
2023/10/16 04:47:48;;;;;;;1.80;0.40;;;;;;;6.19;100.00;101381.97;5072375;28;20938;-71
2023/10/16 04:50:15;;;;;;;1.80;0.40;;;;;;;6.15;100.00;101386.22;5074001;28;20429;-70
2023/10/16 04:58:38;;;;;;;2.10;0.60;;;;;;;6.10;100.00;101396.94;5074329;28;20536;-69
2023/10/16 05:06:48;;;;;;;1.93;0.60;;;;;;;6.11;100.00;101388.63;5072231;28;20469;-71
2023/10/16 05:17:58;;;;;;;1.80;0.40;;;;;;;6.20;100.00;101379.03;5072220;28;20461;-71
2023/10/16 06:15:09;;;;;;;1.80;0.40;;;;;;;6.22;100.00;101419.94;5036712;28;20927;-70
2023/10/16 06:17:37;;;;;;;1.80;0.40;;;;;;;6.29;100.00;101425.16;5036580;28;20469;-69
2023/10/16 06:20:11;;;;;;;1.77;0.43;;;;;;;6.26;100.00;101423.75;5036940;28;20489;-73
2023/10/16 06:22:38;;;;;;;1.80;0.40;;;;;;;6.29;100.00;101431.34;5037230;28;20534;-74
2023/10/16 06:25:10;;;;;;;1.90;0.40;;;;;;;6.32;100.00;101433.50;5037373;28;20443;-74
2023/10/16 06:27:41;;;;;;;1.70;0.30;;;;;;;6.35;100.00;101434.88;5037486;28;20462;-75
2023/10/16 06:30:09;;;;;;;2.00;0.43;;;;;;;6.41;100.00;101441.13;5037308;28;20442;-74
2023/10/16 06:32:36;;;;;;;1.80;0.40;;;;;;;6.48;100.00;101431.00;5036647;28;20473;-73
2023/10/16 06:35:07;;;;;;;1.80;0.40;;;;;;;6.50;100.00;101437.75;5036692;28;20446;-73
2023/10/16 06:37:38;;;;;;;1.90;0.50;;;;;;;6.57;100.00;101435.69;5037020;28;20471;-74
2023/10/16 06:40:16;;;;;;;3.23;0.60;;;;;;;6.66;100.00;101446.81;5036833;28;20490;-73
2023/10/16 06:42:45;;;;;;;2.37;0.90;;;;;;;6.75;100.00;101447.97;5036188;28;20526;-75
2023/10/16 06:45:19;;;;;;;2.00;0.60;;;;;;;6.80;100.00;101442.63;5036083;28;20447;-73
2023/10/16 06:47:48;;;;;;;1.80;0.40;;;;;;;6.81;100.00;101449.63;5035893;28;20463;-73
2023/10/16 06:53:00;;;;;;;2.30;0.70;;;;;;;6.83;100.00;101444.81;5035624;28;20458;-73
2023/10/16 06:55:27;;;;;;;1.80;0.37;;;;;;;6.80;100.00;101441.81;5036215;28;20423;-73
2023/10/16 06:57:53;;;;;;;2.00;0.57;;;;;;;6.78;100.00;101438.59;5036033;28;20555;-73
2023/10/16 07:00:24;;;;;;;2.13;0.50;;;;;;;6.79;100.00;101448.28;5036066;28;20525;-74
2023/10/16 07:02:54;;;;;;;1.80;0.40;;;;;;;6.88;100.00;101435.16;5035813;28;20852;-74
2023/10/16 07:05:22;;;;;;;1.80;0.30;;;;;;;6.89;100.00;101444.88;5036005;28;20443;-74
2023/10/16 07:07:49;;;;;;;2.60;0.70;;;;;;;6.88;100.00;101444.06;5034630;28;20558;-73
2023/10/16 07:10:17;;;;;;;1.80;0.30;;;;;;;6.91;100.00;101438.19;5036280;28;20751;-74
2023/10/16 07:12:56;;;;;;;2.40;0.70;;;;;;;6.97;100.00;101439.03;5035522;28;20482;-74
2023/10/16 07:15:25;;;;;;;3.43;0.90;;;;;;;7.01;100.00;101446.34;5035594;28;20431;-74
2023/10/16 07:17:51;;;;;;;2.13;0.70;;;;;;;7.01;100.00;101437.44;5035670;28;20459;-74
2023/10/16 07:20:27;;;;;;;2.20;0.60;;;;;;;7.07;100.00;101436.41;5035962;28;20487;-74
2023/10/16 07:22:59;;;;;;;2.77;0.60;;;;;;;7.04;100.00;101437.75;5035608;28;20901;-74
2023/10/16 07:25:47;;;;;;;3.50;0.53;;;;;;;7.11;100.00;101442.09;5035618;28;20448;-74
2023/10/16 07:28:15;;;;;;;1.80;0.40;;;;;;;7.21;100.00;101448.38;5035458;28;20442;-74
2023/10/16 07:30:42;;;;;;;1.90;0.47;;;;;;;7.24;100.00;101453.25;5035209;28;20471;-74
2023/10/16 07:33:14;;;;;;;2.10;0.50;;;;;;;7.37;100.00;101456.59;5035451;28;20443;-74
2023/10/16 07:35:41;;;;;;;2.87;0.97;;;;;;;7.55;100.00;101461.59;5035429;28;20428;-74
2023/10/16 07:38:09;;;;;;;2.00;0.70;;;;;;;7.61;100.00;101462.41;5035244;28;20470;-74
2023/10/16 07:40:38;;;;;;;2.00;0.53;;;;;;;7.67;100.00;101462.22;5034914;28;20998;-73
2023/10/16 07:43:05;;;;;;;5.70;0.63;;;;;;;7.80;99.26;101453.66;5035597;28;20447;-74
2023/10/16 07:45:33;;;;;;;2.47;0.80;;;;;;;7.82;99.09;101451.50;5035670;28;20493;-74
2023/10/16 07:48:07;;;;;;;2.60;0.80;;;;;;;7.81;99.01;101457.16;5035391;28;20564;-74
2023/10/16 07:50:38;;;;;;;1.87;0.43;;;;;;;7.81;98.62;101457.97;5035228;28;20431;-73
2023/10/16 07:53:06;;;;;;;2.00;0.40;;;;;;;7.89;98.84;101456.69;5034878;28;20436;-74
2023/10/16 07:55:40;;;;;;;2.57;0.50;;;;;;;7.97;98.56;101460.75;5034633;28;20927;-75
2023/10/16 07:58:15;;;;;;;1.80;0.37;;;;;;;8.02;98.69;101458.09;5035208;28;20509;-72
2023/10/16 08:00:57;;;;;;;1.90;0.47;;;;;;;8.02;98.54;101458.09;5034835;28;20843;-73
2023/10/16 08:03:26;;;;;;;2.00;0.50;;;;;;;8.09;98.60;101464.06;5034610;28;20431;-74
2023/10/16 08:05:52;;;;;;;2.17;0.40;;;;;;;8.13;98.67;101465.16;5034469;28;20950;-74
2023/10/16 08:08:25;;;;;;;2.00;0.50;;;;;;;8.18;98.00;101462.47;5034553;28;20451;-74
2023/10/16 08:10:53;;;;;;;3.20;1.10;;;;;;;8.64;100.00;101469.97;5035082;28;20423;-74
2023/10/16 08:13:24;;;;;;;2.23;0.60;;;;;;;8.96;96.93;101470.59;5034559;28;20475;-75
2023/10/16 08:15:51;;;;;;;2.60;0.60;;;;;;;9.09;94.37;101461.94;5034958;28;20501;-74
2023/10/16 08:18:19;;;;;;;2.43;0.60;;;;;;;9.34;93.26;101469.25;5034659;28;20439;-74
2023/10/16 08:21:05;;;;;;;2.20;0.57;;;;;;;9.56;90.95;101468.16;5034673;28;20971;-75
2023/10/16 08:23:35;;;;;;;1.90;0.40;;;;;;;9.77;90.33;101468.94;5034582;28;20441;-75
2023/10/16 08:26:04;;;;;;;2.97;0.77;;;;;;;9.86;89.93;101467.28;5034536;28;20526;-75
2023/10/16 08:28:36;;;;;;;6.10;0.97;;;;;;;10.05;88.07;101472.94;5034236;28;20938;-74
2023/10/16 08:31:22;;;;;;;2.20;0.50;;;;;;;9.93;86.49;101480.53;5034810;28;20420;-74
2023/10/16 08:33:59;;;;;;;4.23;1.07;;;;;;;9.83;88.58;101479.47;5034337;28;20426;-75
2023/10/16 08:36:26;;;;;;;2.20;0.60;;;;;;;9.82;88.52;101479.75;5034148;28;20465;-75
2023/10/16 08:38:55;;;;;;;2.73;0.80;;;;;;;9.85;87.82;101482.72;5034497;28;20439;-74
2023/10/16 08:41:32;;;;;;;1.97;0.40;;;;;;;9.92;88.85;101487.06;5033801;28;20483;-74
2023/10/16 08:44:10;;;;;;;2.00;0.50;;;;;;;10.00;88.28;101478.34;5034391;28;20450;-75
2023/10/16 08:46:44;;;;;;;2.50;0.50;;;;;;;10.06;87.61;101478.06;5033768;28;20861;-75
2023/10/16 08:49:12;;;;;;;1.97;0.53;;;;;;;10.13;87.56;101485.88;5033739;28;20773;-73
2023/10/16 08:51:39;;;;;;;2.33;0.97;;;;;;;10.19;87.11;101489.41;5033731;28;20439;-74
2023/10/16 08:54:35;;;;;;;2.40;0.50;;;;;;;10.34;87.14;101486.66;5034142;28;20442;-71
2023/10/16 08:56:56;;;;;;;2.00;0.50;;;;;;;10.47;86.79;101483.34;5033449;28;20521;-70
2023/10/16 08:59:28;;;;;;;4.53;0.70;;;;;;;10.61;86.68;101475.44;5033751;28;20529;-73
2023/10/16 09:01:56;;;;;;;3.27;0.60;;;;;;;10.81;86.78;101483.47;5033458;28;20473;-74
2023/10/16 09:04:27;;;;;;;2.57;0.67;;;;;;;10.96;84.49;101482.53;5033819;28;20533;-74
2023/10/16 09:06:54;;;;;;;2.20;0.50;;;;;;;11.11;82.59;101484.31;5033662;28;20646;-74
2023/10/16 09:09:25;;;;;;;3.37;0.80;;;;;;;11.01;82.22;101484.41;5033231;28;20497;-75
2023/10/16 09:12:00;;;;;;;2.20;0.63;;;;;;;11.00;83.89;101493.63;5034154;28;20506;-75
2023/10/16 09:14:28;;;;;;;2.67;0.77;;;;;;;10.93;82.93;101499.34;5034107;28;20423;-75
2023/10/16 09:16:58;;;;;;;2.10;0.53;;;;;;;11.04;83.57;101500.13;5033612;28;20496;-75
2023/10/16 09:19:33;;;;;;;2.20;0.50;;;;;;;11.13;83.56;101503.03;5033947;28;20477;-74
2023/10/16 09:22:04;;;;;;;2.63;0.70;;;;;;;11.08;83.79;101499.28;5033511;28;20464;-74
2023/10/16 09:24:31;;;;;;;2.97;0.70;;;;;;;11.07;83.24;101502.28;5033865;28;20450;-74
2023/10/16 09:26:58;;;;;;;2.20;0.60;;;;;;;11.17;83.54;101507.63;5033341;28;20471;-72
2023/10/16 09:29:25;;;;;;;4.80;0.80;;;;;;;11.14;82.08;101505.47;5033237;28;20530;-74
2023/10/16 09:31:53;;;;;;;2.23;0.80;;;;;;;11.23;82.90;101509.19;5033377;28;20489;-75
2023/10/16 09:34:22;;;;;;;1.90;0.40;;;;;;;11.39;81.72;101511.81;5033432;28;20439;-75
2023/10/16 09:37:14;;;;;;;2.30;0.77;;;;;;;11.41;80.50;101509.59;5033296;28;20466;-74
2023/10/16 09:39:36;;;;;;;2.40;0.80;;;;;;;11.45;80.83;101505.22;5032998;28;20780;-75
2023/10/16 09:42:05;;;;;;;1.80;0.40;;;;;;;11.52;80.02;101508.44;5033256;28;20525;-75
2023/10/16 09:44:37;;;;;;;1.93;0.47;;;;;;;11.67;80.17;101505.56;5033364;28;20451;-75
2023/10/16 09:49:47;;;;;;;2.47;0.87;;;;;;;11.58;78.29;101504.56;5032060;28;20439;-75
2023/10/16 09:52:17;;;;;;;1.80;0.40;;;;;;;11.52;79.81;101503.00;5033953;28;20520;-75
2023/10/16 09:54:45;;;;;;;2.27;0.67;;;;;;;11.63;81.14;101508.03;5033573;28;20483;-75
2023/10/16 09:57:18;;;;;;;3.13;0.70;;;;;;;11.82;79.90;101505.47;5033111;28;20498;-75
2023/10/16 09:59:45;;;;;;;1.90;0.50;;;;;;;11.91;75.97;101511.09;5033491;28;20514;-76
2023/10/16 10:02:18;;;;;;;1.80;0.40;;;;;;;11.91;76.04;101515.69;5033045;28;20545;-75
2023/10/16 10:04:53;;;;;;;1.80;0.40;;;;;;;11.92;77.02;101515.41;5033804;28;20474;-74
2023/10/16 10:07:22;;;;;;;1.90;0.50;;;;;;;11.87;76.54;101507.34;5032935;28;20462;-76
2023/10/16 10:09:57;;;;;;;2.10;0.70;;;;;;;11.90;75.78;101508.66;5033150;28;20428;-75
2023/10/16 10:12:37;;;;;;;2.00;0.50;;;;;;;11.91;76.39;101508.38;5033598;28;20430;-75
2023/10/16 10:15:15;;;;;;;2.97;0.90;;;;;;;12.09;75.17;101514.97;5033482;28;20430;-76
2023/10/16 10:17:47;;;;;;;2.20;0.67;;;;;;;12.11;74.46;101510.88;5033054;28;20458;-75
2023/10/16 10:20:23;;;;;;;2.37;0.60;;;;;;;12.20;73.97;101508.31;5032957;28;20433;-74
2023/10/16 10:22:54;;;;;;;3.10;0.90;;;;;;;12.26;73.40;101509.91;5033271;28;20828;-75
2023/10/16 10:25:35;;;;;;;2.00;0.50;;;;;;;12.31;73.22;101501.69;5033300;28;20443;-76
2023/10/16 10:28:09;;;;;;;2.30;0.77;;;;;;;12.33;70.26;101506.81;5032962;28;20451;-75
2023/10/16 10:30:39;;;;;;;3.83;0.70;;;;;;;12.48;72.50;101497.66;5032706;28;20420;-74
2023/10/16 10:33:08;;;;;;;3.30;0.87;;;;;;;12.69;72.61;101506.38;5032946;28;20423;-75
2023/10/16 10:35:39;;;;;;;2.50;0.40;;;;;;;12.75;73.37;101511.47;5032581;28;20852;-74
2023/10/16 10:38:17;;;;;;;1.90;0.50;;;;;;;12.86;73.12;101501.25;5032862;28;21058;-75
2023/10/16 10:41:14;;;;;;;3.10;0.70;;;;;;;13.28;71.13;101503.09;5032905;28;20470;-74
2023/10/16 10:43:46;;;;;;;1.87;0.43;;;;;;;13.48;68.95;101501.94;4955997;29;20427;-76
2023/10/16 10:46:14;;;;;;;2.00;0.50;;;;;;;13.53;64.56;101506.50;5020614;28;20479;-74
2023/10/16 10:48:46;;;;;;;4.33;0.77;;;;;;;13.16;66.80;101510.88;5036397;28;20439;-75
2023/10/16 10:51:14;;;;;;;2.20;0.70;;;;;;;12.75;69.31;101506.03;5036356;28;20915;-74
2023/10/16 10:53:57;;;;;;;2.40;0.60;;;;;;;12.71;69.69;101515.06;5036272;28;20822;-73
2023/10/16 10:56:30;;;;;;;2.93;0.60;;;;;;;12.73;68.45;101502.78;5036191;28;20469;-73
2023/10/16 10:58:56;;;;;;;2.00;0.50;;;;;;;12.79;69.89;101501.63;5036235;28;20518;-73
2023/10/16 11:01:33;;;;;;;2.00;0.50;;;;;;;13.16;70.67;101502.72;5035605;28;21069;-73
2023/10/16 11:04:09;;;;;;;3.10;0.70;;;;;;;13.85;66.72;101506.47;5036031;28;20481;-73
2023/10/16 11:06:42;;;;;;;1.90;0.47;;;;;;;14.77;61.67;101509.31;5035913;28;20459;-73
2023/10/16 11:09:18;;;;;;;2.50;0.80;;;;;;;15.76;58.75;101513.78;5035472;28;20462;-73
2023/10/16 11:11:47;;;;;;;2.20;0.77;;;;;;;16.49;56.04;101505.22;5036090;28;20495;-73
2023/10/16 11:14:15;;;;;;;2.10;0.57;;;;;;;16.38;54.83;101510.19;5036315;28;20497;-74
2023/10/16 11:16:43;;;;;;;2.30;0.80;;;;;;;16.14;54.74;101508.63;5035687;28;20867;-73
2023/10/16 11:19:23;;;;;;;2.37;0.70;;;;;;;16.19;54.52;101504.97;5036061;28;20439;-74
2023/10/16 11:21:50;;;;;;;2.20;0.60;;;;;;;17.05;52.41;101498.88;5035555;28;20525;-74
2023/10/16 11:24:16;;;;;;;2.10;0.60;;;;;;;17.02;50.90;101490.50;5035889;28;20462;-73
2023/10/16 11:26:45;;;;;;;2.10;0.70;;;;;;;17.07;50.95;101493.06;5035427;28;20529;-73
2023/10/16 11:29:13;;;;;;;2.30;0.50;;;;;;;17.22;51.41;101497.25;5035603;28;20958;-73
2023/10/16 11:31:41;;;;;;;1.97;0.40;;;;;;;18.19;49.17;101507.66;5035352;28;20443;-73
2023/10/16 11:34:12;;;;;;;1.90;0.40;;;;;;;18.54;47.40;101508.28;5035463;28;20440;-73
2023/10/16 11:36:40;;;;;;;1.90;0.50;;;;;;;17.57;48.52;101487.03;5035081;28;20967;-73
2023/10/16 11:39:08;;;;;;;2.57;0.63;;;;;;;17.09;49.13;101496.31;5035691;28;20435;-73
2023/10/16 11:41:36;;;;;;;2.00;0.47;;;;;;;16.05;50.79;101493.34;5035392;28;20490;-73
2023/10/16 11:44:12;;;;;;;12.97;1.20;;;;;;;15.31;53.21;101497.38;5035517;28;20451;-73
2023/10/16 11:46:44;;;;;;;2.10;0.60;;;;;;;14.59;56.00;101491.97;5035378;28;20474;-74
2023/10/16 11:49:29;;;;;;;1.80;0.40;;;;;;;13.90;57.76;101483.78;5035263;28;20506;-73
2023/10/16 11:52:08;;;;;;;2.23;0.50;;;;;;;13.59;59.26;101478.06;5035456;28;20424;-73
2023/10/16 11:54:35;;;;;;;2.53;0.63;;;;;;;13.31;60.62;101477.19;5034592;28;20455;-73
2023/10/16 11:57:04;;;;;;;1.83;0.40;;;;;;;13.21;62.24;101480.84;5034949;28;20463;-74
2023/10/16 11:59:32;;;;;;;1.80;0.37;;;;;;;13.10;64.57;101465.78;5035713;28;20447;-74
2023/10/16 12:02:01;;;;;;;1.83;0.43;;;;;;;13.03;64.73;101470.81;5034902;28;20490;-74
2023/10/16 12:04:28;;;;;;;5.43;0.60;;;;;;;12.89;64.09;101473.47;5035003;28;20538;-74
2023/10/16 12:06:57;;;;;;;2.00;0.50;;;;;;;12.80;64.40;101465.16;5034523;28;20473;-74
2023/10/16 12:09:27;;;;;;;2.03;0.50;;;;;;;12.57;65.49;101469.56;5111043;22;20520;-72
2023/10/16 12:11:54;;;;;;;3.30;0.50;;;;;;;12.55;66.01;101460.88;5074612;28;20441;-73
2023/10/16 12:14:23;;;;;;;2.13;0.50;;;;;;;12.78;64.85;101470.06;5074589;28;20438;-72
2023/10/16 12:16:50;;;;;;;2.10;0.43;;;;;;;13.40;61.43;101466.44;5074732;28;20484;-73
2023/10/16 12:19:19;;;;;;;2.00;0.50;;;;;;;13.69;59.81;101467.00;5075040;28;20524;-72
2023/10/16 12:21:47;;;;;;;2.20;0.50;;;;;;;13.55;60.14;101464.28;5074714;28;20533;-72
2023/10/16 12:24:16;;;;;;;2.20;0.60;;;;;;;13.38;61.05;101472.19;5074102;28;21012;-72
2023/10/16 12:26:45;;;;;;;1.77;0.37;;;;;;;13.13;59.86;101467.94;5074111;28;20487;-72
2023/10/16 12:29:12;;;;;;;2.00;0.50;;;;;;;12.84;59.29;101471.63;5074652;28;20437;-73
2023/10/16 12:31:40;;;;;;;1.87;0.40;;;;;;;12.64;60.54;101477.34;5074255;28;20516;-75
2023/10/16 12:34:10;;;;;;;2.00;0.40;;;;;;;12.38;62.53;101471.44;5074186;28;20442;-74
2023/10/16 12:36:37;;;;;;;2.80;0.50;;;;;;;12.20;63.91;101470.28;5074087;28;20464;-74
2023/10/16 12:39:13;;;;;;;2.30;0.50;;;;;;;12.15;64.90;101478.50;5074338;28;20473;-74
2023/10/16 12:41:41;;;;;;;2.13;0.60;;;;;;;12.10;65.71;101470.44;5073672;28;20491;-74
2023/10/16 12:44:09;;;;;;;2.07;0.47;;;;;;;12.07;65.63;101474.50;5073934;28;20442;-74
2023/10/16 12:46:36;;;;;;;2.47;0.53;;;;;;;12.02;66.13;101476.50;5074041;28;20458;-74
2023/10/16 12:49:06;;;;;;;2.00;0.50;;;;;;;11.95;67.24;101476.00;5073903;28;20437;-74
2023/10/16 12:51:33;;;;;;;2.30;0.40;;;;;;;11.95;67.11;101476.81;5073631;28;20444;-74
2023/10/16 12:54:03;;;;;;;2.00;0.40;;;;;;;11.94;68.02;101474.41;5073851;28;21016;-74
2023/10/16 12:56:29;;;;;;;2.00;0.60;;;;;;;11.91;68.75;101480.41;5073694;28;21045;-74
2023/10/16 12:58:57;;;;;;;1.90;0.50;;;;;;;11.92;67.00;101477.41;5073220;28;20476;-74
2023/10/16 13:01:25;;;;;;;2.43;0.70;;;;;;;11.87;68.26;101469.31;5073095;28;20481;-72
2023/10/16 13:03:53;;;;;;;2.20;0.50;;;;;;;11.86;67.75;101470.41;5073027;28;20444;-72
2023/10/16 13:06:19;;;;;;;2.20;0.50;;;;;;;11.82;68.04;101482.91;5072926;28;20465;-74
2023/10/16 13:08:47;;;;;;;1.90;0.50;;;;;;;11.78;69.33;101481.88;5072631;28;20537;-73
2023/10/16 13:11:16;;;;;;;3.80;0.60;;;;;;;11.76;68.34;101476.72;5072929;28;20441;-74